sensor_id;sensor_type;location;lat;lon;timestamp;P1;durP1;ratioP1;P2;durP2;ratioP2
3405;SDS011;10008;48.682;9.016;2023-04-30T00:00:39;10.37;;;8.00;;
3405;SDS011;10008;48.682;9.016;2023-04-30T00:03:05;10.90;;;8.40;;
3405;SDS011;10008;48.682;9.016;2023-04-30T00:05:31;12.73;;;8.77;;
3405;SDS011;10008;48.682;9.016;2023-04-30T00:07:56;11.73;;;7.93;;
3405;SDS011;10008;48.682;9.016;2023-04-30T00:10:22;11.40;;;8.77;;
3405;SDS011;10008;48.682;9.016;2023-04-30T00:12:48;10.43;;;7.77;;
3405;SDS011;10008;48.682;9.016;2023-04-30T00:15:13;10.60;;;7.60;;
3405;SDS011;10008;48.682;9.016;2023-04-30T00:17:39;10.30;;;7.90;;
3405;SDS011;10008;48.682;9.016;2023-04-30T00:20:05;11.10;;;7.93;;
3405;SDS011;10008;48.682;9.016;2023-04-30T00:22:31;11.30;;;8.33;;
3405;SDS011;10008;48.682;9.016;2023-04-30T00:24:57;12.13;;;8.93;;
3405;SDS011;10008;48.682;9.016;2023-04-30T00:27:23;9.70;;;7.10;;
3405;SDS011;10008;48.682;9.016;2023-04-30T00:29:49;11.20;;;8.47;;
3405;SDS011;10008;48.682;9.016;2023-04-30T00:32:14;10.50;;;8.13;;
3405;SDS011;10008;48.682;9.016;2023-04-30T00:34:40;10.30;;;8.00;;
3405;SDS011;10008;48.682;9.016;2023-04-30T00:37:06;10.47;;;7.87;;
3405;SDS011;10008;48.682;9.016;2023-04-30T00:39:32;10.50;;;7.67;;
3405;SDS011;10008;48.682;9.016;2023-04-30T00:41:57;10.67;;;7.80;;
3405;SDS011;10008;48.682;9.016;2023-04-30T00:44:23;12.37;;;8.00;;
3405;SDS011;10008;48.682;9.016;2023-04-30T00:46:49;12.33;;;8.50;;
3405;SDS011;10008;48.682;9.016;2023-04-30T00:49:14;11.60;;;8.60;;
3405;SDS011;10008;48.682;9.016;2023-04-30T00:51:40;13.10;;;9.03;;
3405;SDS011;10008;48.682;9.016;2023-04-30T00:54:06;11.40;;;8.30;;
3405;SDS011;10008;48.682;9.016;2023-04-30T00:56:33;13.30;;;8.87;;
3405;SDS011;10008;48.682;9.016;2023-04-30T00:58:58;15.80;;;9.50;;
3405;SDS011;10008;48.682;9.016;2023-04-30T01:01:25;12.13;;;9.10;;
3405;SDS011;10008;48.682;9.016;2023-04-30T01:03:54;16.80;;;8.90;;
3405;SDS011;10008;48.682;9.016;2023-04-30T01:06:20;11.57;;;8.63;;
3405;SDS011;10008;48.682;9.016;2023-04-30T01:08:47;12.60;;;8.50;;
3405;SDS011;10008;48.682;9.016;2023-04-30T01:14:11;11.30;;;8.60;;
3405;SDS011;10008;48.682;9.016;2023-04-30T01:16:44;11.63;;;9.03;;
3405;SDS011;10008;48.682;9.016;2023-04-30T01:22:13;11.00;;;8.53;;
3405;SDS011;10008;48.682;9.016;2023-04-30T01:28:09;12.10;;;8.70;;
3405;SDS011;10008;48.682;9.016;2023-04-30T01:30:46;11.37;;;8.50;;
3405;SDS011;10008;48.682;9.016;2023-04-30T01:33:13;12.87;;;8.30;;
3405;SDS011;10008;48.682;9.016;2023-04-30T01:35:49;11.20;;;8.53;;
3405;SDS011;10008;48.682;9.016;2023-04-30T01:38:32;13.03;;;9.30;;
3405;SDS011;10008;48.682;9.016;2023-04-30T01:44:06;12.10;;;8.60;;
3405;SDS011;10008;48.682;9.016;2023-04-30T01:46:45;11.97;;;8.50;;
3405;SDS011;10008;48.682;9.016;2023-04-30T01:52:01;13.37;;;8.67;;
3405;SDS011;10008;48.682;9.016;2023-04-30T01:54:37;12.40;;;9.10;;
3405;SDS011;10008;48.682;9.016;2023-04-30T01:57:17;12.00;;;8.30;;
3405;SDS011;10008;48.682;9.016;2023-04-30T01:59:50;12.47;;;9.77;;
3405;SDS011;10008;48.682;9.016;2023-04-30T02:02:16;14.03;;;9.37;;
3405;SDS011;10008;48.682;9.016;2023-04-30T02:04:42;12.10;;;8.43;;
3405;SDS011;10008;48.682;9.016;2023-04-30T02:07:08;15.50;;;9.33;;
3405;SDS011;10008;48.682;9.016;2023-04-30T02:09:34;13.87;;;9.43;;
3405;SDS011;10008;48.682;9.016;2023-04-30T02:11:59;12.10;;;8.70;;
3405;SDS011;10008;48.682;9.016;2023-04-30T02:14:25;13.70;;;9.10;;
3405;SDS011;10008;48.682;9.016;2023-04-30T02:16:51;12.47;;;9.50;;
3405;SDS011;10008;48.682;9.016;2023-04-30T02:19:17;14.03;;;10.20;;
3405;SDS011;10008;48.682;9.016;2023-04-30T02:21:43;12.13;;;9.03;;
3405;SDS011;10008;48.682;9.016;2023-04-30T02:24:09;12.27;;;9.50;;
3405;SDS011;10008;48.682;9.016;2023-04-30T02:26:34;15.00;;;10.83;;
3405;SDS011;10008;48.682;9.016;2023-04-30T02:29:00;15.20;;;10.40;;
3405;SDS011;10008;48.682;9.016;2023-04-30T02:31:26;15.67;;;10.00;;
3405;SDS011;10008;48.682;9.016;2023-04-30T02:33:51;14.03;;;10.03;;
3405;SDS011;10008;48.682;9.016;2023-04-30T02:36:17;18.10;;;10.23;;
3405;SDS011;10008;48.682;9.016;2023-04-30T02:38:43;13.53;;;10.07;;
3405;SDS011;10008;48.682;9.016;2023-04-30T02:41:09;15.27;;;10.57;;
3405;SDS011;10008;48.682;9.016;2023-04-30T02:43:34;15.10;;;10.60;;
3405;SDS011;10008;48.682;9.016;2023-04-30T02:46:00;14.50;;;11.17;;
3405;SDS011;10008;48.682;9.016;2023-04-30T02:48:26;16.10;;;11.67;;
3405;SDS011;10008;48.682;9.016;2023-04-30T02:50:51;16.00;;;11.87;;
3405;SDS011;10008;48.682;9.016;2023-04-30T02:53:17;15.77;;;12.17;;
3405;SDS011;10008;48.682;9.016;2023-04-30T02:55:43;14.87;;;11.50;;
3405;SDS011;10008;48.682;9.016;2023-04-30T02:58:09;15.33;;;11.83;;
3405;SDS011;10008;48.682;9.016;2023-04-30T03:00:34;15.90;;;11.20;;
3405;SDS011;10008;48.682;9.016;2023-04-30T03:03:00;17.33;;;11.67;;
3405;SDS011;10008;48.682;9.016;2023-04-30T03:05:26;16.13;;;12.13;;
3405;SDS011;10008;48.682;9.016;2023-04-30T03:07:52;14.47;;;10.73;;
3405;SDS011;10008;48.682;9.016;2023-04-30T03:10:18;15.77;;;11.70;;
3405;SDS011;10008;48.682;9.016;2023-04-30T03:12:43;18.40;;;12.20;;
3405;SDS011;10008;48.682;9.016;2023-04-30T03:15:09;16.50;;;12.47;;
3405;SDS011;10008;48.682;9.016;2023-04-30T03:17:35;18.07;;;13.47;;
3405;SDS011;10008;48.682;9.016;2023-04-30T03:20:01;19.63;;;13.10;;
3405;SDS011;10008;48.682;9.016;2023-04-30T03:22:27;17.07;;;12.40;;
3405;SDS011;10008;48.682;9.016;2023-04-30T03:24:53;18.07;;;13.53;;
3405;SDS011;10008;48.682;9.016;2023-04-30T03:27:18;18.83;;;12.77;;
3405;SDS011;10008;48.682;9.016;2023-04-30T03:29:44;18.97;;;13.23;;
3405;SDS011;10008;48.682;9.016;2023-04-30T03:32:10;28.80;;;13.13;;
3405;SDS011;10008;48.682;9.016;2023-04-30T03:34:36;17.47;;;12.73;;
3405;SDS011;10008;48.682;9.016;2023-04-30T03:37:02;16.03;;;12.40;;
3405;SDS011;10008;48.682;9.016;2023-04-30T03:39:28;18.30;;;12.67;;
3405;SDS011;10008;48.682;9.016;2023-04-30T03:41:54;16.77;;;12.33;;
3405;SDS011;10008;48.682;9.016;2023-04-30T03:44:19;17.27;;;13.47;;
3405;SDS011;10008;48.682;9.016;2023-04-30T03:46:45;18.33;;;13.67;;
3405;SDS011;10008;48.682;9.016;2023-04-30T03:49:11;18.43;;;13.87;;
3405;SDS011;10008;48.682;9.016;2023-04-30T03:51:37;19.70;;;14.03;;
3405;SDS011;10008;48.682;9.016;2023-04-30T03:54:05;19.50;;;12.50;;
3405;SDS011;10008;48.682;9.016;2023-04-30T03:56:32;16.97;;;13.13;;
3405;SDS011;10008;48.682;9.016;2023-04-30T03:58:58;17.97;;;13.20;;
3405;SDS011;10008;48.682;9.016;2023-04-30T04:01:24;20.47;;;13.27;;
3405;SDS011;10008;48.682;9.016;2023-04-30T04:03:50;18.30;;;13.20;;
3405;SDS011;10008;48.682;9.016;2023-04-30T04:06:16;17.80;;;12.70;;
3405;SDS011;10008;48.682;9.016;2023-04-30T04:08:42;17.80;;;12.77;;
3405;SDS011;10008;48.682;9.016;2023-04-30T04:11:11;18.40;;;13.53;;
3405;SDS011;10008;48.682;9.016;2023-04-30T04:13:37;17.30;;;13.60;;
3405;SDS011;10008;48.682;9.016;2023-04-30T04:16:03;17.87;;;13.10;;
3405;SDS011;10008;48.682;9.016;2023-04-30T04:18:28;18.73;;;12.83;;
3405;SDS011;10008;48.682;9.016;2023-04-30T04:20:54;19.67;;;14.00;;
3405;SDS011;10008;48.682;9.016;2023-04-30T04:23:21;18.57;;;13.23;;
3405;SDS011;10008;48.682;9.016;2023-04-30T04:25:47;18.20;;;13.70;;
3405;SDS011;10008;48.682;9.016;2023-04-30T04:28:16;18.23;;;13.33;;
3405;SDS011;10008;48.682;9.016;2023-04-30T04:30:42;18.00;;;13.23;;
3405;SDS011;10008;48.682;9.016;2023-04-30T04:33:08;19.27;;;14.00;;
3405;SDS011;10008;48.682;9.016;2023-04-30T04:35:34;20.93;;;13.83;;
3405;SDS011;10008;48.682;9.016;2023-04-30T04:38:00;17.07;;;12.40;;
3405;SDS011;10008;48.682;9.016;2023-04-30T04:40:27;16.37;;;12.73;;
3405;SDS011;10008;48.682;9.016;2023-04-30T04:42:53;16.83;;;12.40;;
3405;SDS011;10008;48.682;9.016;2023-04-30T04:45:19;18.20;;;13.80;;
3405;SDS011;10008;48.682;9.016;2023-04-30T04:47:47;17.53;;;13.30;;
3405;SDS011;10008;48.682;9.016;2023-04-30T04:50:13;16.07;;;12.30;;
3405;SDS011;10008;48.682;9.016;2023-04-30T04:52:39;17.60;;;13.20;;
3405;SDS011;10008;48.682;9.016;2023-04-30T04:55:05;16.50;;;13.30;;
3405;SDS011;10008;48.682;9.016;2023-04-30T04:57:31;16.20;;;13.00;;
3405;SDS011;10008;48.682;9.016;2023-04-30T04:59:57;17.00;;;13.13;;
3405;SDS011;10008;48.682;9.016;2023-04-30T05:02:23;16.80;;;12.70;;
3405;SDS011;10008;48.682;9.016;2023-04-30T05:04:50;16.47;;;12.37;;
3405;SDS011;10008;48.682;9.016;2023-04-30T05:07:17;16.37;;;12.57;;
3405;SDS011;10008;48.682;9.016;2023-04-30T05:09:45;16.90;;;12.40;;
3405;SDS011;10008;48.682;9.016;2023-04-30T05:12:12;16.13;;;13.03;;
3405;SDS011;10008;48.682;9.016;2023-04-30T05:14:38;16.97;;;13.13;;
3405;SDS011;10008;48.682;9.016;2023-04-30T05:17:04;15.37;;;12.40;;
3405;SDS011;10008;48.682;9.016;2023-04-30T05:19:30;16.90;;;13.57;;
3405;SDS011;10008;48.682;9.016;2023-04-30T05:21:56;16.80;;;13.23;;
3405;SDS011;10008;48.682;9.016;2023-04-30T05:24:22;15.50;;;13.17;;
3405;SDS011;10008;48.682;9.016;2023-04-30T05:26:48;15.47;;;12.77;;
3405;SDS011;10008;48.682;9.016;2023-04-30T05:29:14;16.80;;;13.50;;
3405;SDS011;10008;48.682;9.016;2023-04-30T05:31:39;17.17;;;13.60;;
3405;SDS011;10008;48.682;9.016;2023-04-30T05:34:06;15.97;;;13.30;;
3405;SDS011;10008;48.682;9.016;2023-04-30T05:36:32;15.13;;;13.07;;
3405;SDS011;10008;48.682;9.016;2023-04-30T05:38:57;16.33;;;13.70;;
3405;SDS011;10008;48.682;9.016;2023-04-30T05:41:23;15.63;;;13.53;;
3405;SDS011;10008;48.682;9.016;2023-04-30T05:43:49;15.00;;;13.30;;
3405;SDS011;10008;48.682;9.016;2023-04-30T05:46:15;14.87;;;13.27;;
3405;SDS011;10008;48.682;9.016;2023-04-30T05:48:41;20.30;;;14.87;;
3405;SDS011;10008;48.682;9.016;2023-04-30T05:51:06;15.87;;;14.00;;
3405;SDS011;10008;48.682;9.016;2023-04-30T05:53:32;17.00;;;14.97;;
3405;SDS011;10008;48.682;9.016;2023-04-30T05:55:58;17.00;;;15.20;;
3405;SDS011;10008;48.682;9.016;2023-04-30T05:58:24;16.93;;;15.13;;
3405;SDS011;10008;48.682;9.016;2023-04-30T06:00:50;16.80;;;15.10;;
3405;SDS011;10008;48.682;9.016;2023-04-30T06:03:17;18.47;;;16.57;;
3405;SDS011;10008;48.682;9.016;2023-04-30T06:05:43;17.00;;;15.30;;
3405;SDS011;10008;48.682;9.016;2023-04-30T06:08:11;16.30;;;14.63;;
3405;SDS011;10008;48.682;9.016;2023-04-30T06:10:37;18.77;;;16.67;;
3405;SDS011;10008;48.682;9.016;2023-04-30T06:13:03;16.43;;;14.73;;
3405;SDS011;10008;48.682;9.016;2023-04-30T06:15:30;17.17;;;14.83;;
3405;SDS011;10008;48.682;9.016;2023-04-30T06:17:56;16.73;;;14.97;;
3405;SDS011;10008;48.682;9.016;2023-04-30T06:20:22;15.93;;;14.33;;
3405;SDS011;10008;48.682;9.016;2023-04-30T06:22:48;17.83;;;15.93;;
3405;SDS011;10008;48.682;9.016;2023-04-30T06:25:14;17.10;;;15.30;;
3405;SDS011;10008;48.682;9.016;2023-04-30T06:27:40;16.10;;;14.47;;
3405;SDS011;10008;48.682;9.016;2023-04-30T06:30:06;16.73;;;15.03;;
3405;SDS011;10008;48.682;9.016;2023-04-30T06:32:32;17.23;;;15.43;;
3405;SDS011;10008;48.682;9.016;2023-04-30T06:34:58;17.60;;;15.90;;
3405;SDS011;10008;48.682;9.016;2023-04-30T06:37:23;18.03;;;16.20;;
3405;SDS011;10008;48.682;9.016;2023-04-30T06:39:49;17.57;;;15.77;;
3405;SDS011;10008;48.682;9.016;2023-04-30T06:42:15;17.07;;;15.37;;
3405;SDS011;10008;48.682;9.016;2023-04-30T06:44:41;17.27;;;15.47;;
3405;SDS011;10008;48.682;9.016;2023-04-30T06:47:07;16.67;;;14.90;;
3405;SDS011;10008;48.682;9.016;2023-04-30T06:49:33;17.77;;;16.07;;
3405;SDS011;10008;48.682;9.016;2023-04-30T06:51:58;17.67;;;15.93;;
3405;SDS011;10008;48.682;9.016;2023-04-30T06:54:25;18.00;;;16.10;;
3405;SDS011;10008;48.682;9.016;2023-04-30T06:56:51;18.27;;;16.47;;
3405;SDS011;10008;48.682;9.016;2023-04-30T06:59:18;18.13;;;16.37;;
3405;SDS011;10008;48.682;9.016;2023-04-30T07:01:43;17.63;;;15.93;;
3405;SDS011;10008;48.682;9.016;2023-04-30T07:04:09;17.77;;;16.17;;
3405;SDS011;10008;48.682;9.016;2023-04-30T07:06:35;18.00;;;16.30;;
3405;SDS011;10008;48.682;9.016;2023-04-30T07:09:02;19.17;;;17.37;;
3405;SDS011;10008;48.682;9.016;2023-04-30T07:11:28;17.87;;;16.27;;
3405;SDS011;10008;48.682;9.016;2023-04-30T07:13:53;17.80;;;16.00;;
3405;SDS011;10008;48.682;9.016;2023-04-30T07:16:19;18.20;;;16.60;;
3405;SDS011;10008;48.682;9.016;2023-04-30T07:18:46;19.30;;;17.30;;
3405;SDS011;10008;48.682;9.016;2023-04-30T07:21:15;17.90;;;16.30;;
3405;SDS011;10008;48.682;9.016;2023-04-30T07:23:40;17.97;;;16.20;;
3405;SDS011;10008;48.682;9.016;2023-04-30T07:26:08;18.73;;;16.87;;
3405;SDS011;10008;48.682;9.016;2023-04-30T07:28:33;18.43;;;16.73;;
3405;SDS011;10008;48.682;9.016;2023-04-30T07:30:59;18.10;;;16.50;;
3405;SDS011;10008;48.682;9.016;2023-04-30T07:33:26;19.23;;;17.00;;
3405;SDS011;10008;48.682;9.016;2023-04-30T07:35:52;18.53;;;16.83;;
3405;SDS011;10008;48.682;9.016;2023-04-30T07:38:20;18.10;;;16.60;;
3405;SDS011;10008;48.682;9.016;2023-04-30T07:40:45;19.30;;;17.60;;
3405;SDS011;10008;48.682;9.016;2023-04-30T07:43:11;17.83;;;16.33;;
3405;SDS011;10008;48.682;9.016;2023-04-30T07:45:37;17.73;;;16.23;;
3405;SDS011;10008;48.682;9.016;2023-04-30T07:48:02;17.13;;;15.73;;
3405;SDS011;10008;48.682;9.016;2023-04-30T07:50:30;18.00;;;16.40;;
3405;SDS011;10008;48.682;9.016;2023-04-30T07:52:58;18.27;;;16.77;;
3405;SDS011;10008;48.682;9.016;2023-04-30T07:55:24;18.27;;;16.80;;
3405;SDS011;10008;48.682;9.016;2023-04-30T07:57:50;18.80;;;17.10;;
3405;SDS011;10008;48.682;9.016;2023-04-30T08:00:16;17.37;;;15.77;;
3405;SDS011;10008;48.682;9.016;2023-04-30T08:02:42;17.07;;;15.67;;
3405;SDS011;10008;48.682;9.016;2023-04-30T08:05:12;17.13;;;15.67;;
3405;SDS011;10008;48.682;9.016;2023-04-30T08:07:38;16.73;;;15.33;;
3405;SDS011;10008;48.682;9.016;2023-04-30T08:10:04;17.87;;;16.17;;
3405;SDS011;10008;48.682;9.016;2023-04-30T08:12:30;17.17;;;15.77;;
3405;SDS011;10008;48.682;9.016;2023-04-30T08:15:00;16.27;;;14.97;;
3405;SDS011;10008;48.682;9.016;2023-04-30T08:17:28;17.43;;;15.93;;
3405;SDS011;10008;48.682;9.016;2023-04-30T08:19:53;17.80;;;16.20;;
3405;SDS011;10008;48.682;9.016;2023-04-30T08:22:19;17.00;;;15.60;;
3405;SDS011;10008;48.682;9.016;2023-04-30T08:24:45;16.60;;;15.13;;
3405;SDS011;10008;48.682;9.016;2023-04-30T08:27:11;16.70;;;15.30;;
3405;SDS011;10008;48.682;9.016;2023-04-30T08:29:36;18.50;;;16.80;;
3405;SDS011;10008;48.682;9.016;2023-04-30T08:32:02;18.00;;;16.40;;
3405;SDS011;10008;48.682;9.016;2023-04-30T08:34:29;17.07;;;15.47;;
3405;SDS011;10008;48.682;9.016;2023-04-30T08:36:55;16.30;;;14.80;;
3405;SDS011;10008;48.682;9.016;2023-04-30T08:39:21;16.30;;;14.90;;
3405;SDS011;10008;48.682;9.016;2023-04-30T08:41:49;16.17;;;14.80;;
3405;SDS011;10008;48.682;9.016;2023-04-30T08:44:21;16.40;;;15.00;;
3405;SDS011;10008;48.682;9.016;2023-04-30T08:46:53;16.93;;;15.53;;
3405;SDS011;10008;48.682;9.016;2023-04-30T08:49:21;16.60;;;15.10;;
3405;SDS011;10008;48.682;9.016;2023-04-30T08:51:47;16.50;;;15.20;;
3405;SDS011;10008;48.682;9.016;2023-04-30T08:54:14;17.20;;;15.70;;
3405;SDS011;10008;48.682;9.016;2023-04-30T08:56:40;17.47;;;15.97;;
3405;SDS011;10008;48.682;9.016;2023-04-30T08:59:06;15.10;;;13.80;;
3405;SDS011;10008;48.682;9.016;2023-04-30T09:01:32;16.00;;;14.70;;
3405;SDS011;10008;48.682;9.016;2023-04-30T09:03:59;16.30;;;14.90;;
3405;SDS011;10008;48.682;9.016;2023-04-30T09:06:27;16.00;;;14.70;;
3405;SDS011;10008;48.682;9.016;2023-04-30T09:08:53;16.90;;;15.40;;
3405;SDS011;10008;48.682;9.016;2023-04-30T09:11:19;16.93;;;15.43;;
3405;SDS011;10008;48.682;9.016;2023-04-30T09:13:53;16.63;;;15.23;;
3405;SDS011;10008;48.682;9.016;2023-04-30T09:16:23;16.70;;;15.20;;
3405;SDS011;10008;48.682;9.016;2023-04-30T09:18:51;16.00;;;14.60;;
3405;SDS011;10008;48.682;9.016;2023-04-30T09:21:29;16.33;;;14.83;;
3405;SDS011;10008;48.682;9.016;2023-04-30T09:23:57;16.47;;;15.17;;
3405;SDS011;10008;48.682;9.016;2023-04-30T09:26:35;16.80;;;15.30;;
3405;SDS011;10008;48.682;9.016;2023-04-30T09:29:02;15.87;;;14.57;;
3405;SDS011;10008;48.682;9.016;2023-04-30T09:31:38;16.23;;;14.63;;
3405;SDS011;10008;48.682;9.016;2023-04-30T09:34:06;15.43;;;14.13;;
3405;SDS011;10008;48.682;9.016;2023-04-30T09:36:32;15.63;;;14.33;;
3405;SDS011;10008;48.682;9.016;2023-04-30T09:39:08;19.23;;;17.30;;
3405;SDS011;10008;48.682;9.016;2023-04-30T09:41:43;16.27;;;14.77;;
3405;SDS011;10008;48.682;9.016;2023-04-30T09:44:25;30.00;;;21.60;;
3405;SDS011;10008;48.682;9.016;2023-04-30T09:46:57;15.80;;;14.40;;
3405;SDS011;10008;48.682;9.016;2023-04-30T09:49:23;15.87;;;14.57;;
3405;SDS011;10008;48.682;9.016;2023-04-30T09:51:57;16.17;;;14.77;;
3405;SDS011;10008;48.682;9.016;2023-04-30T09:54:24;15.93;;;14.57;;
3405;SDS011;10008;48.682;9.016;2023-04-30T09:56:54;16.33;;;14.93;;
3405;SDS011;10008;48.682;9.016;2023-04-30T09:59:29;16.07;;;14.67;;
3405;SDS011;10008;48.682;9.016;2023-04-30T10:02:00;16.17;;;14.83;;
3405;SDS011;10008;48.682;9.016;2023-04-30T10:04:34;16.10;;;14.77;;
3405;SDS011;10008;48.682;9.016;2023-04-30T10:07:01;16.23;;;14.93;;
3405;SDS011;10008;48.682;9.016;2023-04-30T10:09:46;15.37;;;14.17;;
3405;SDS011;10008;48.682;9.016;2023-04-30T10:12:23;15.30;;;14.00;;
3405;SDS011;10008;48.682;9.016;2023-04-30T10:14:56;15.23;;;13.93;;
3405;SDS011;10008;48.682;9.016;2023-04-30T10:17:30;15.47;;;14.20;;
3405;SDS011;10008;48.682;9.016;2023-04-30T10:20:01;15.90;;;14.57;;
3405;SDS011;10008;48.682;9.016;2023-04-30T10:22:31;16.30;;;15.00;;
3405;SDS011;10008;48.682;9.016;2023-04-30T10:24:58;16.03;;;14.73;;
3405;SDS011;10008;48.682;9.016;2023-04-30T10:27:26;16.07;;;14.77;;
3405;SDS011;10008;48.682;9.016;2023-04-30T10:29:57;15.57;;;14.27;;
3405;SDS011;10008;48.682;9.016;2023-04-30T10:32:24;15.33;;;14.10;;
3405;SDS011;10008;48.682;9.016;2023-04-30T10:35:09;15.83;;;14.53;;
3405;SDS011;10008;48.682;9.016;2023-04-30T10:37:52;15.37;;;13.87;;
3405;SDS011;10008;48.682;9.016;2023-04-30T10:40:26;15.53;;;14.33;;
3405;SDS011;10008;48.682;9.016;2023-04-30T10:42:52;15.60;;;14.40;;
3405;SDS011;10008;48.682;9.016;2023-04-30T10:45:34;15.37;;;14.07;;
3405;SDS011;10008;48.682;9.016;2023-04-30T10:48:02;15.70;;;14.43;;
3405;SDS011;10008;48.682;9.016;2023-04-30T10:50:28;15.90;;;14.67;;
3405;SDS011;10008;48.682;9.016;2023-04-30T10:53:04;15.33;;;14.03;;
3405;SDS011;10008;48.682;9.016;2023-04-30T10:55:31;16.03;;;14.70;;
3405;SDS011;10008;48.682;9.016;2023-04-30T10:57:57;17.20;;;15.70;;
3405;SDS011;10008;48.682;9.016;2023-04-30T11:00:24;15.40;;;14.10;;
3405;SDS011;10008;48.682;9.016;2023-04-30T11:02:54;16.50;;;15.10;;
3405;SDS011;10008;48.682;9.016;2023-04-30T11:05:32;16.33;;;14.93;;
3405;SDS011;10008;48.682;9.016;2023-04-30T11:08:02;15.70;;;14.40;;
3405;SDS011;10008;48.682;9.016;2023-04-30T11:10:31;14.90;;;13.70;;
3405;SDS011;10008;48.682;9.016;2023-04-30T11:12:58;15.17;;;13.90;;
3405;SDS011;10008;48.682;9.016;2023-04-30T11:15:33;15.03;;;13.83;;
3405;SDS011;10008;48.682;9.016;2023-04-30T11:18:03;14.63;;;13.40;;
3405;SDS011;10008;48.682;9.016;2023-04-30T11:20:29;14.97;;;13.67;;
3405;SDS011;10008;48.682;9.016;2023-04-30T11:23:08;14.87;;;13.57;;
3405;SDS011;10008;48.682;9.016;2023-04-30T11:25:38;14.10;;;12.83;;
3405;SDS011;10008;48.682;9.016;2023-04-30T11:28:06;13.77;;;12.67;;
3405;SDS011;10008;48.682;9.016;2023-04-30T11:30:32;14.27;;;12.97;;
3405;SDS011;10008;48.682;9.016;2023-04-30T11:32:59;14.67;;;13.47;;
3405;SDS011;10008;48.682;9.016;2023-04-30T11:35:26;14.23;;;13.13;;
3405;SDS011;10008;48.682;9.016;2023-04-30T11:37:54;14.70;;;13.50;;
3405;SDS011;10008;48.682;9.016;2023-04-30T11:40:21;14.80;;;13.50;;
3405;SDS011;10008;48.682;9.016;2023-04-30T11:42:46;13.97;;;12.77;;
3405;SDS011;10008;48.682;9.016;2023-04-30T11:45:16;13.83;;;12.73;;
3405;SDS011;10008;48.682;9.016;2023-04-30T11:47:45;14.50;;;13.20;;
3405;SDS011;10008;48.682;9.016;2023-04-30T11:50:13;14.10;;;12.90;;
3405;SDS011;10008;48.682;9.016;2023-04-30T11:52:40;14.43;;;13.23;;
3405;SDS011;10008;48.682;9.016;2023-04-30T11:55:17;14.00;;;12.90;;
3405;SDS011;10008;48.682;9.016;2023-04-30T11:57:51;13.73;;;12.63;;
3405;SDS011;10008;48.682;9.016;2023-04-30T12:00:25;13.90;;;12.70;;
3405;SDS011;10008;48.682;9.016;2023-04-30T12:02:52;14.90;;;13.50;;
3405;SDS011;10008;48.682;9.016;2023-04-30T12:05:18;14.77;;;13.47;;
3405;SDS011;10008;48.682;9.016;2023-04-30T12:07:46;14.50;;;13.30;;
3405;SDS011;10008;48.682;9.016;2023-04-30T12:10:24;13.90;;;12.80;;
3405;SDS011;10008;48.682;9.016;2023-04-30T12:12:50;14.40;;;13.23;;
3405;SDS011;10008;48.682;9.016;2023-04-30T12:15:26;14.53;;;13.23;;
3405;SDS011;10008;48.682;9.016;2023-04-30T12:17:56;14.70;;;13.50;;
3405;SDS011;10008;48.682;9.016;2023-04-30T12:20:24;14.13;;;13.03;;
3405;SDS011;10008;48.682;9.016;2023-04-30T12:22:52;14.07;;;12.97;;
3405;SDS011;10008;48.682;9.016;2023-04-30T12:25:19;14.40;;;13.30;;
3405;SDS011;10008;48.682;9.016;2023-04-30T12:27:49;14.07;;;12.97;;
3405;SDS011;10008;48.682;9.016;2023-04-30T12:30:23;13.87;;;12.77;;
3405;SDS011;10008;48.682;9.016;2023-04-30T12:32:56;14.53;;;13.33;;
3405;SDS011;10008;48.682;9.016;2023-04-30T12:35:23;15.07;;;13.77;;
3405;SDS011;10008;48.682;9.016;2023-04-30T12:37:53;15.20;;;14.00;;
3405;SDS011;10008;48.682;9.016;2023-04-30T12:40:26;14.67;;;13.47;;
3405;SDS011;10008;48.682;9.016;2023-04-30T12:43:05;14.50;;;13.30;;
3405;SDS011;10008;48.682;9.016;2023-04-30T12:48:27;13.90;;;12.70;;
3405;SDS011;10008;48.682;9.016;2023-04-30T12:50:54;14.20;;;13.03;;
3405;SDS011;10008;48.682;9.016;2023-04-30T12:53:25;15.07;;;13.77;;
3405;SDS011;10008;48.682;9.016;2023-04-30T12:56:07;14.67;;;13.40;;
3405;SDS011;10008;48.682;9.016;2023-04-30T12:58:39;15.33;;;14.13;;
3405;SDS011;10008;48.682;9.016;2023-04-30T13:01:12;15.87;;;14.47;;
3405;SDS011;10008;48.682;9.016;2023-04-30T13:03:40;15.60;;;14.30;;
3405;SDS011;10008;48.682;9.016;2023-04-30T13:06:06;16.47;;;15.07;;
3405;SDS011;10008;48.682;9.016;2023-04-30T13:08:32;14.47;;;13.37;;
3405;SDS011;10008;48.682;9.016;2023-04-30T13:10:58;15.77;;;14.37;;
3405;SDS011;10008;48.682;9.016;2023-04-30T13:13:25;14.90;;;13.70;;
3405;SDS011;10008;48.682;9.016;2023-04-30T13:15:50;15.47;;;14.27;;
3405;SDS011;10008;48.682;9.016;2023-04-30T13:18:17;14.93;;;13.67;;
3405;SDS011;10008;48.682;9.016;2023-04-30T13:20:42;15.00;;;13.80;;
3405;SDS011;10008;48.682;9.016;2023-04-30T13:23:09;14.43;;;13.33;;
3405;SDS011;10008;48.682;9.016;2023-04-30T13:25:36;14.90;;;13.70;;
3405;SDS011;10008;48.682;9.016;2023-04-30T13:28:03;15.30;;;14.10;;
3405;SDS011;10008;48.682;9.016;2023-04-30T13:30:29;15.33;;;14.03;;
3405;SDS011;10008;48.682;9.016;2023-04-30T13:32:55;15.10;;;13.90;;
3405;SDS011;10008;48.682;9.016;2023-04-30T13:35:21;14.87;;;13.67;;
3405;SDS011;10008;48.682;9.016;2023-04-30T13:37:46;14.97;;;13.77;;
3405;SDS011;10008;48.682;9.016;2023-04-30T13:40:16;15.53;;;14.33;;
3405;SDS011;10008;48.682;9.016;2023-04-30T13:42:44;15.17;;;13.97;;
3405;SDS011;10008;48.682;9.016;2023-04-30T13:45:10;16.10;;;14.60;;
3405;SDS011;10008;48.682;9.016;2023-04-30T13:47:37;14.97;;;13.67;;
3405;SDS011;10008;48.682;9.016;2023-04-30T13:50:03;15.30;;;14.00;;
3405;SDS011;10008;48.682;9.016;2023-04-30T13:52:30;15.13;;;13.73;;
3405;SDS011;10008;48.682;9.016;2023-04-30T13:54:56;15.10;;;13.90;;
3405;SDS011;10008;48.682;9.016;2023-04-30T13:57:22;15.07;;;13.63;;
3405;SDS011;10008;48.682;9.016;2023-04-30T13:59:49;14.67;;;13.47;;
3405;SDS011;10008;48.682;9.016;2023-04-30T14:02:15;15.20;;;13.90;;
3405;SDS011;10008;48.682;9.016;2023-04-30T14:04:41;15.70;;;14.30;;
3405;SDS011;10008;48.682;9.016;2023-04-30T14:07:07;15.30;;;14.10;;
3405;SDS011;10008;48.682;9.016;2023-04-30T14:09:33;15.80;;;14.40;;
3405;SDS011;10008;48.682;9.016;2023-04-30T14:12:00;15.27;;;13.97;;
3405;SDS011;10008;48.682;9.016;2023-04-30T14:14:27;14.67;;;13.47;;
3405;SDS011;10008;48.682;9.016;2023-04-30T14:16:52;15.37;;;14.00;;
3405;SDS011;10008;48.682;9.016;2023-04-30T14:19:21;14.50;;;13.30;;
3405;SDS011;10008;48.682;9.016;2023-04-30T14:21:47;15.13;;;13.93;;
3405;SDS011;10008;48.682;9.016;2023-04-30T14:24:13;15.20;;;13.80;;
3405;SDS011;10008;48.682;9.016;2023-04-30T14:26:42;14.90;;;13.33;;
3405;SDS011;10008;48.682;9.016;2023-04-30T14:29:09;14.77;;;13.57;;
3405;SDS011;10008;48.682;9.016;2023-04-30T14:31:35;14.07;;;12.97;;
3405;SDS011;10008;48.682;9.016;2023-04-30T14:34:01;15.30;;;13.80;;
3405;SDS011;10008;48.682;9.016;2023-04-30T14:36:27;15.63;;;14.13;;
3405;SDS011;10008;48.682;9.016;2023-04-30T14:38:53;14.87;;;13.67;;
3405;SDS011;10008;48.682;9.016;2023-04-30T14:41:19;18.27;;;16.50;;
3405;SDS011;10008;48.682;9.016;2023-04-30T14:43:45;16.80;;;15.40;;
3405;SDS011;10008;48.682;9.016;2023-04-30T14:46:11;14.83;;;13.63;;
3405;SDS011;10008;48.682;9.016;2023-04-30T14:48:37;14.30;;;13.20;;
3405;SDS011;10008;48.682;9.016;2023-04-30T14:51:03;14.70;;;13.50;;
3405;SDS011;10008;48.682;9.016;2023-04-30T14:53:28;15.10;;;13.80;;
3405;SDS011;10008;48.682;9.016;2023-04-30T14:55:54;14.63;;;13.40;;